createdAt,value
2018-03-22T00:01:49.745Z,2.30
2018-03-22T00:04:17.173Z,2.30
2018-03-22T00:06:44.594Z,2.30
2018-03-22T00:09:12.034Z,2.30
2018-03-22T00:11:39.454Z,2.20
2018-03-22T00:14:06.890Z,2.20
2018-03-22T00:16:34.319Z,2.10
2018-03-22T00:19:01.761Z,2.00
2018-03-22T00:21:29.190Z,2.00
2018-03-22T00:23:56.609Z,1.90
2018-03-22T00:26:24.046Z,1.90
2018-03-22T00:28:52.234Z,1.90
2018-03-22T00:31:26.541Z,1.90
2018-03-22T00:33:54.735Z,1.90
2018-03-22T00:36:22.159Z,1.90
2018-03-22T00:38:49.576Z,1.90
2018-03-22T00:41:17.009Z,1.80
2018-03-22T00:43:44.432Z,1.90
2018-03-22T00:46:11.860Z,1.80
2018-03-22T00:48:39.283Z,1.80
2018-03-22T00:51:06.725Z,1.80
2018-03-22T00:53:34.252Z,1.80
2018-03-22T00:56:01.574Z,1.80
2018-03-22T00:58:29.003Z,1.70
2018-03-22T01:00:56.433Z,1.70
2018-03-22T01:03:23.870Z,1.70
2018-03-22T01:05:51.293Z,1.60
2018-03-22T01:08:18.721Z,1.60
2018-03-22T01:10:46.155Z,1.60
2018-03-22T01:13:13.581Z,1.50
2018-03-22T01:15:41.006Z,1.30
2018-03-22T01:18:08.433Z,1.30
2018-03-22T01:20:35.857Z,1.20
2018-03-22T01:23:03.285Z,1.20
2018-03-22T01:25:30.706Z,1.20
2018-03-22T01:27:58.132Z,1.30
2018-03-22T01:30:35.309Z,1.30
2018-03-22T01:33:02.744Z,1.30
2018-03-22T01:35:30.171Z,1.20
2018-03-22T01:37:57.597Z,1.10
2018-03-22T01:40:25.017Z,1.10
2018-03-22T01:42:52.444Z,1.10
2018-03-22T01:45:19.878Z,1.20
2018-03-22T01:47:47.300Z,1.20
2018-03-22T01:50:14.728Z,1.10
2018-03-22T01:52:54.029Z,1.10
2018-03-22T01:55:21.425Z,1.10
2018-03-22T01:57:48.846Z,1.10
2018-03-22T02:00:16.281Z,1.10
2018-03-22T02:02:44.461Z,1.00
2018-03-22T02:05:11.889Z,1.00
2018-03-22T02:07:39.309Z,1.00
2018-03-22T02:10:06.772Z,1.00
2018-03-22T02:12:34.165Z,1.00
2018-03-22T02:15:01.621Z,0.90
2018-03-22T02:17:29.818Z,0.80
2018-03-22T02:19:57.245Z,0.80
2018-03-22T02:22:24.665Z,0.70
2018-03-22T02:24:52.094Z,0.70
2018-03-22T02:27:19.515Z,0.60
2018-03-22T02:29:46.949Z,0.60
2018-03-22T02:32:14.377Z,0.60
2018-03-22T02:34:41.804Z,0.60
2018-03-22T02:37:09.233Z,0.70
2018-03-22T02:39:36.654Z,0.70
2018-03-22T02:42:04.092Z,0.70
2018-03-22T02:44:31.529Z,0.80
2018-03-22T02:46:58.958Z,0.80
2018-03-22T02:49:26.375Z,0.80
2018-03-22T02:51:53.813Z,0.80
2018-03-22T02:54:21.225Z,0.80
2018-03-22T02:56:49.439Z,0.70
2018-03-22T02:59:16.865Z,0.60
2018-03-22T03:01:44.302Z,0.60
2018-03-22T03:04:11.986Z,0.60
2018-03-22T03:06:39.512Z,0.70
2018-03-22T03:09:06.929Z,0.60
2018-03-22T03:11:34.361Z,0.70
2018-03-22T03:14:01.786Z,0.80
2018-03-22T03:16:29.224Z,0.90
2018-03-22T03:18:56.653Z,0.80
2018-03-22T03:21:24.087Z,0.80
2018-03-22T03:23:51.511Z,0.80
2018-03-22T03:26:18.943Z,0.80
2018-03-22T03:28:46.362Z,0.80
2018-03-22T03:31:13.793Z,0.70
2018-03-22T03:33:41.220Z,0.70
2018-03-22T03:36:08.649Z,0.70
2018-03-22T03:38:36.069Z,0.80
2018-03-22T03:41:03.515Z,0.70
2018-03-22T03:43:31.701Z,0.70
2018-03-22T03:45:59.128Z,0.70
2018-03-22T03:48:27.324Z,0.60
2018-03-22T03:50:54.750Z,0.60
2018-03-22T03:53:22.187Z,0.60
2018-03-22T03:55:49.611Z,0.60
2018-03-22T05:20:14.142Z,0.50
2018-03-22T05:22:41.577Z,-0.10
2018-03-22T05:25:09.013Z,-0.10
2018-03-22T05:27:36.443Z,0.00
2018-03-22T05:30:04.671Z,0.00
2018-03-22T05:32:32.064Z,0.00
2018-03-22T05:34:59.492Z,0.00
2018-03-22T05:37:26.933Z,0.00
2018-03-22T05:39:54.366Z,0.10
2018-03-22T05:42:21.794Z,0.10
2018-03-22T05:44:49.979Z,0.10
2018-03-22T05:47:17.402Z,0.10
2018-03-22T05:49:44.865Z,0.20
2018-03-22T05:52:12.289Z,0.20
2018-03-22T05:54:40.532Z,0.20
2018-03-22T05:57:07.952Z,0.30
2018-03-22T05:59:35.380Z,0.30
2018-03-22T06:02:02.811Z,0.40
2018-03-22T06:04:30.241Z,0.50
2018-03-22T06:06:57.664Z,0.50
2018-03-22T06:09:25.107Z,0.50
2018-03-22T06:11:52.535Z,0.60
2018-03-22T06:14:19.966Z,0.60
2018-03-22T06:16:47.416Z,0.70
2018-03-22T06:19:15.619Z,0.70
2018-03-22T06:21:43.041Z,0.70
2018-03-22T06:24:11.233Z,0.90
2018-03-22T06:26:38.653Z,0.80
2018-03-22T06:29:06.081Z,0.90
2018-03-22T06:31:33.514Z,0.90
2018-03-22T06:34:00.928Z,0.90
2018-03-22T06:36:28.355Z,1.00
2018-03-22T06:38:55.785Z,1.00
2018-03-22T06:41:23.221Z,1.10
2018-03-22T06:43:50.636Z,1.10
2018-03-22T06:46:18.073Z,1.20
2018-03-22T06:48:45.501Z,1.30
2018-03-22T06:51:12.935Z,1.30
2018-03-22T06:53:40.357Z,1.40
2018-03-22T06:56:07.801Z,1.40
2018-03-22T06:58:35.234Z,1.50
2018-03-22T07:01:02.671Z,1.70
2018-03-22T07:03:30.093Z,1.80
2018-03-22T07:05:57.517Z,1.90
2018-03-22T07:08:24.949Z,1.90
2018-03-22T07:10:52.377Z,1.90
2018-03-22T07:13:19.805Z,2.00
2018-03-22T07:15:47.225Z,2.00
2018-03-22T07:18:14.662Z,2.10
2018-03-22T07:20:42.084Z,2.10
2018-03-22T07:23:09.517Z,2.20
2018-03-22T07:25:36.936Z,2.30
2018-03-22T07:28:04.373Z,2.30
2018-03-22T07:30:31.800Z,2.30
2018-03-22T07:32:59.226Z,2.40
2018-03-22T07:35:26.659Z,2.40
2018-03-22T07:37:54.101Z,2.40
2018-03-22T07:40:21.518Z,2.40
2018-03-22T07:42:54.720Z,2.40
2018-03-22T07:45:22.136Z,2.50
2018-03-22T07:47:49.568Z,2.50
2018-03-22T07:50:17.223Z,2.50
2018-03-22T07:52:44.631Z,2.50
2018-03-22T07:55:12.058Z,2.60
2018-03-22T07:57:39.493Z,2.70
2018-03-22T08:00:06.944Z,2.80
2018-03-22T08:02:34.362Z,2.90
2018-03-22T08:05:01.810Z,3.00
2018-03-22T08:07:29.233Z,3.00
2018-03-22T08:09:56.929Z,3.10
2018-03-22T08:12:24.325Z,3.20
2018-03-22T08:14:52.485Z,3.40
2018-03-22T08:17:19.904Z,3.40
2018-03-22T08:19:47.341Z,3.60
2018-03-22T08:22:14.774Z,3.80
2018-03-22T08:24:42.206Z,3.90
2018-03-22T08:27:09.645Z,4.10
2018-03-22T08:29:37.885Z,4.40
2018-03-22T08:32:05.322Z,4.40
2018-03-22T08:34:32.749Z,4.60
2018-03-22T08:37:00.193Z,4.70
2018-03-22T08:39:27.644Z,4.80
2018-03-22T08:41:55.101Z,5.00
2018-03-22T08:44:22.550Z,5.10
2018-03-22T08:46:50.002Z,5.20
2018-03-22T08:49:17.465Z,5.30
2018-03-22T08:51:44.934Z,5.30
2018-03-22T08:54:12.366Z,5.30
2018-03-22T08:56:40.577Z,5.30
2018-03-22T08:59:08.009Z,5.30
2018-03-22T09:01:36.221Z,5.40
2018-03-22T09:04:03.651Z,5.30
2018-03-22T09:06:31.084Z,5.40
2018-03-22T09:08:59.318Z,5.50
2018-03-22T09:11:26.748Z,5.50
2018-03-22T09:13:55.087Z,5.60
2018-03-22T09:16:22.529Z,5.60
2018-03-22T09:18:49.964Z,5.60
2018-03-22T09:21:17.392Z,5.50
2018-03-22T09:23:44.843Z,5.60
2018-03-22T09:26:12.268Z,5.60
2018-03-22T09:28:40.469Z,5.10
2018-03-22T09:31:07.897Z,5.00
2018-03-22T09:33:36.101Z,4.80
2018-03-22T09:36:03.524Z,4.80
2018-03-22T09:38:31.738Z,4.60
2018-03-22T09:40:59.157Z,4.60
2018-03-22T09:43:27.357Z,4.60
2018-03-22T09:45:54.783Z,4.60
2018-03-22T09:48:22.217Z,4.70
2018-03-22T09:50:49.650Z,4.70
2018-03-22T09:53:17.101Z,4.70
2018-03-22T09:55:44.521Z,4.70
2018-03-22T09:58:12.730Z,4.80
2018-03-22T10:00:40.162Z,4.80
2018-03-22T10:03:07.655Z,4.90
2018-03-22T10:05:35.090Z,4.90
2018-03-22T10:08:02.533Z,4.90
2018-03-22T10:10:29.998Z,4.70
2018-03-22T10:12:57.420Z,4.70
2018-03-22T10:15:24.866Z,4.60
2018-03-22T10:17:52.289Z,4.50
2018-03-22T10:20:19.734Z,4.50
2018-03-22T10:22:47.156Z,4.50
2018-03-22T10:25:15.365Z,4.70
2018-03-22T10:27:42.790Z,4.70
2018-03-22T10:30:10.217Z,4.80
2018-03-22T10:32:37.648Z,4.80
2018-03-22T10:35:05.097Z,5.00
2018-03-22T10:37:32.524Z,5.10
2018-03-22T10:39:59.960Z,5.10
2018-03-22T10:42:28.153Z,5.20
2018-03-22T10:44:55.608Z,5.20
2018-03-22T10:47:23.034Z,5.30
2018-03-22T10:49:51.222Z,5.30
2018-03-22T10:52:18.668Z,5.30
2018-03-22T10:54:46.095Z,5.20
2018-03-22T10:57:13.538Z,5.10
2018-03-22T10:59:40.972Z,5.20
2018-03-22T11:02:14.135Z,5.20
2018-03-22T11:04:42.339Z,5.10
2018-03-22T11:07:09.776Z,5.10
2018-03-22T11:09:37.200Z,5.10
2018-03-22T11:12:05.406Z,4.90
2018-03-22T11:14:32.828Z,4.90
2018-03-22T11:17:00.270Z,4.70
2018-03-22T11:19:27.702Z,4.50
2018-03-22T11:21:55.182Z,4.50
2018-03-22T11:24:22.568Z,4.50
2018-03-22T11:26:50.009Z,4.40
2018-03-22T11:29:18.197Z,4.10
2018-03-22T11:31:45.641Z,4.10
2018-03-22T11:34:13.834Z,4.10
2018-03-22T11:36:41.261Z,4.10
2018-03-22T11:39:08.701Z,4.00
2018-03-22T11:41:36.130Z,4.00
2018-03-22T11:44:03.569Z,4.00
2018-03-22T11:46:30.996Z,4.00
2018-03-22T11:48:58.442Z,4.00
2018-03-22T11:51:25.884Z,4.00
2018-03-22T11:53:53.376Z,3.90
2018-03-22T11:56:20.745Z,3.90
2018-03-22T11:58:48.185Z,4.00
2018-03-22T12:01:15.671Z,4.00
2018-03-22T12:03:43.101Z,4.00
2018-03-22T12:06:10.533Z,4.00
2018-03-22T12:08:38.750Z,4.10
2018-03-22T12:11:06.232Z,4.10
2018-03-22T12:13:33.624Z,4.20
2018-03-22T12:16:01.060Z,4.10
2018-03-22T12:18:28.492Z,4.10
2018-03-22T12:20:55.931Z,4.20
2018-03-22T12:23:23.361Z,4.20
2018-03-22T12:25:50.805Z,4.30
2018-03-22T12:28:18.997Z,4.40
2018-03-22T12:30:46.430Z,4.40
2018-03-22T12:33:13.893Z,4.50
2018-03-22T12:35:42.101Z,4.50
2018-03-22T12:38:09.550Z,4.50
2018-03-22T12:40:36.985Z,4.60
2018-03-22T12:43:05.128Z,4.70
2018-03-22T12:45:32.561Z,4.70
2018-03-22T12:47:59.985Z,4.80
2018-03-22T12:50:27.718Z,4.80
2018-03-22T12:52:55.344Z,4.80
2018-03-22T12:55:22.937Z,4.80
2018-03-22T12:57:50.382Z,4.80
2018-03-22T13:00:18.038Z,4.90
2018-03-22T13:02:45.505Z,4.80
2018-03-22T13:05:13.044Z,4.80
2018-03-22T13:07:40.469Z,4.80
2018-03-22T13:10:08.764Z,4.80
2018-03-22T13:12:36.816Z,4.80
2018-03-22T13:15:05.022Z,4.80
2018-03-22T13:17:32.469Z,4.70
2018-03-22T13:19:59.952Z,4.80
2018-03-22T13:22:27.582Z,4.80
2018-03-22T13:24:55.065Z,4.80
2018-03-22T13:27:22.496Z,4.80
2018-03-22T13:29:49.948Z,4.90
2018-03-22T13:32:18.328Z,4.90
2018-03-22T13:34:45.919Z,4.90
2018-03-22T13:37:13.348Z,4.90
2018-03-22T13:39:40.776Z,4.80
2018-03-22T13:42:08.278Z,4.90
2018-03-22T13:44:35.704Z,4.80
2018-03-22T13:47:03.128Z,4.90
2018-03-22T13:49:30.581Z,5.00
2018-03-22T13:51:58.307Z,5.00
2018-03-22T13:54:25.780Z,5.00
2018-03-22T13:56:53.204Z,5.00
2018-03-22T13:59:21.584Z,4.90
2018-03-22T14:01:50.987Z,4.90
2018-03-22T14:04:18.457Z,5.00
2018-03-22T14:06:45.880Z,5.00
2018-03-22T14:09:22.032Z,5.00
2018-03-22T14:11:50.356Z,5.00
2018-03-22T14:14:17.820Z,4.90
2018-03-22T14:16:45.219Z,4.90
2018-03-22T14:19:12.718Z,4.80
2018-03-22T14:21:40.140Z,4.90
2018-03-22T14:24:07.637Z,4.90
2018-03-22T14:26:35.067Z,4.90
2018-03-22T14:29:02.497Z,4.90
2018-03-22T14:31:30.004Z,4.90
2018-03-22T14:33:57.460Z,4.90
2018-03-22T14:36:24.918Z,4.90
2018-03-22T14:38:52.335Z,4.90
2018-03-22T14:41:19.766Z,4.90
2018-03-22T14:43:47.276Z,4.90
2018-03-22T14:46:14.724Z,5.00
2018-03-22T14:48:42.196Z,4.90
2018-03-22T14:51:09.624Z,4.90
2018-03-22T14:53:37.048Z,4.90
2018-03-22T14:56:04.476Z,4.90
2018-03-22T14:58:32.028Z,4.90
2018-03-22T15:00:59.456Z,4.90
2018-03-22T15:03:26.884Z,5.00
2018-03-22T15:05:54.338Z,5.00
2018-03-22T15:08:22.537Z,4.90
2018-03-22T15:10:50.135Z,4.90
2018-03-22T15:13:17.678Z,4.90
2018-03-22T15:15:45.109Z,4.90
2018-03-22T15:18:12.537Z,4.80
2018-03-22T15:20:40.049Z,4.80
2018-03-22T15:23:07.482Z,4.80
2018-03-22T15:25:34.901Z,4.90
2018-03-22T15:28:02.342Z,4.90
2018-03-22T15:30:29.881Z,4.90
2018-03-22T15:32:57.432Z,4.90
2018-03-22T15:35:24.959Z,5.00
2018-03-22T15:37:52.472Z,5.00
2018-03-22T15:40:20.205Z,5.10
2018-03-22T15:42:47.623Z,5.20
2018-03-22T15:45:15.820Z,5.20
2018-03-22T15:47:43.304Z,5.20
2018-03-22T15:50:10.672Z,5.20
2018-03-22T15:52:38.205Z,5.20
2018-03-22T15:55:05.628Z,5.30
2018-03-22T15:57:33.062Z,5.40
2018-03-22T16:00:00.576Z,5.40
2018-03-22T16:02:28.024Z,5.30
2018-03-22T16:04:55.449Z,5.40
2018-03-22T16:07:22.888Z,5.40
2018-03-22T16:09:50.308Z,5.30
2018-03-22T16:12:17.750Z,5.30
2018-03-22T16:14:45.226Z,5.30
2018-03-22T16:17:12.615Z,5.30
2018-03-22T16:19:40.817Z,5.30
2018-03-22T16:22:08.305Z,5.30
2018-03-22T16:24:35.928Z,5.20
2018-03-22T16:27:03.520Z,5.20
2018-03-22T16:29:30.944Z,5.10
2018-03-22T16:31:58.372Z,5.20
2018-03-22T16:34:25.803Z,5.20
2018-03-22T16:36:53.380Z,5.20
2018-03-22T16:39:20.792Z,5.20
2018-03-22T16:41:48.252Z,5.10
2018-03-22T16:44:15.692Z,5.20
2018-03-22T16:46:43.164Z,5.10
2018-03-22T16:49:10.632Z,5.20
2018-03-22T16:51:38.388Z,5.20
2018-03-22T16:54:05.844Z,5.20
2018-03-22T16:56:33.295Z,5.20
2018-03-22T16:59:00.800Z,5.20
2018-03-22T17:01:28.516Z,5.20
2018-03-22T17:03:55.976Z,5.20
2018-03-22T17:06:23.409Z,5.20
2018-03-22T17:08:50.830Z,5.20
2018-03-22T17:11:18.252Z,5.20
2018-03-22T17:13:45.696Z,5.20
2018-03-22T17:16:13.137Z,5.20
2018-03-22T17:18:40.572Z,5.20
2018-03-22T17:21:09.964Z,5.20
2018-03-22T17:23:37.384Z,5.20
2018-03-22T17:26:04.831Z,5.20
2018-03-22T17:28:33.169Z,5.20
2018-03-22T17:31:00.756Z,5.20
2018-03-22T17:33:28.215Z,5.20
2018-03-22T17:35:55.697Z,5.20
2018-03-22T17:38:23.240Z,5.20
2018-03-22T17:40:50.680Z,5.20
2018-03-22T17:43:18.349Z,5.30
2018-03-22T17:45:45.804Z,5.30
2018-03-22T17:48:13.271Z,5.30
2018-03-22T17:50:40.716Z,5.30
2018-03-22T17:53:08.273Z,5.30
2018-03-22T17:55:35.713Z,5.30
2018-03-22T17:58:03.397Z,5.20
2018-03-22T18:00:30.868Z,5.30
2018-03-22T18:02:58.300Z,5.30
2018-03-22T18:05:25.722Z,5.30
2018-03-22T18:07:53.216Z,5.30
2018-03-22T18:10:20.669Z,5.30
2018-03-22T18:12:48.159Z,5.30
2018-03-22T18:15:15.583Z,5.30
2018-03-22T18:17:42.996Z,5.30
2018-03-22T18:20:10.496Z,5.30
2018-03-22T18:22:37.912Z,5.30
2018-03-22T18:25:05.344Z,5.30
2018-03-22T18:27:32.770Z,5.20
2018-03-22T18:30:00.324Z,5.30
2018-03-22T18:32:27.752Z,5.30
2018-03-22T18:34:55.236Z,5.30
2018-03-22T18:37:22.665Z,5.40
2018-03-22T18:39:50.096Z,5.40
2018-03-22T18:42:17.521Z,5.40
2018-03-22T18:44:45.068Z,5.40
2018-03-22T18:47:12.480Z,5.30
2018-03-22T18:49:39.928Z,5.40
2018-03-22T18:52:07.428Z,5.40
2018-03-22T18:54:34.880Z,5.50
2018-03-22T18:57:02.292Z,5.40
2018-03-22T18:59:29.728Z,5.40
2018-03-22T19:01:57.157Z,5.40
2018-03-22T19:04:24.587Z,5.40
2018-03-22T19:06:52.013Z,5.40
2018-03-22T19:09:20.200Z,5.40
2018-03-22T19:11:47.697Z,5.40
2018-03-22T19:14:15.116Z,5.40
2018-03-22T19:16:42.549Z,5.40
2018-03-22T19:19:09.972Z,5.30
2018-03-22T19:21:37.617Z,5.40
2018-03-22T19:24:04.972Z,5.30
2018-03-22T19:26:32.429Z,5.40
2018-03-22T19:28:59.884Z,5.40
2018-03-22T19:31:27.319Z,5.40
2018-03-22T19:33:54.752Z,5.40
2018-03-22T19:36:22.180Z,5.40
2018-03-22T19:38:50.636Z,5.40
2018-03-22T19:41:18.066Z,5.40
2018-03-22T19:43:45.500Z,5.40
2018-03-22T19:46:12.922Z,5.30
2018-03-22T19:48:40.456Z,5.30
2018-03-22T19:51:08.092Z,5.30
2018-03-22T19:53:35.672Z,5.30
2018-03-22T19:56:03.143Z,5.30
2018-03-22T19:58:30.596Z,5.30
2018-03-22T20:00:58.360Z,5.30
2018-03-22T20:03:25.792Z,5.20
2018-03-22T20:05:53.275Z,5.30
2018-03-22T20:08:20.929Z,5.30
2018-03-22T20:10:48.361Z,5.20
2018-03-22T20:13:15.842Z,5.20
2018-03-22T20:15:43.300Z,5.30
2018-03-22T20:18:10.852Z,5.30
2018-03-22T20:20:38.308Z,5.30
2018-03-22T20:23:05.732Z,5.20
2018-03-22T20:25:33.171Z,5.20
2018-03-22T20:28:00.675Z,5.20
2018-03-22T20:30:28.113Z,5.20
2018-03-22T20:32:55.540Z,5.20
2018-03-22T20:35:23.056Z,5.20
2018-03-22T20:37:50.576Z,5.20
2018-03-22T20:40:18.013Z,5.20
2018-03-22T20:42:45.724Z,5.20
2018-03-22T20:45:13.176Z,5.20
2018-03-22T20:47:40.640Z,5.20
2018-03-22T20:50:08.288Z,5.10
2018-03-22T20:52:35.716Z,5.20
2018-03-22T20:55:03.144Z,5.20
2018-03-22T20:57:30.692Z,5.10
2018-03-22T20:59:58.174Z,5.10
2018-03-22T21:02:25.604Z,5.10
2018-03-22T21:04:53.041Z,5.10
2018-03-22T21:07:20.602Z,5.10
2018-03-22T21:09:48.024Z,5.10
2018-03-22T21:12:15.464Z,5.00
2018-03-22T21:14:43.751Z,5.10
2018-03-22T21:17:11.344Z,5.10
2018-03-22T21:19:38.791Z,5.10
2018-03-22T21:22:06.245Z,5.10
2018-03-22T21:24:33.712Z,5.20
2018-03-22T21:27:01.155Z,5.10
2018-03-22T21:29:28.586Z,5.10
2018-03-22T21:31:56.009Z,5.10
2018-03-22T21:34:23.452Z,5.10
2018-03-22T21:36:50.984Z,5.10
2018-03-22T21:39:18.432Z,5.10
2018-03-22T21:41:57.777Z,5.10
2018-03-22T21:44:25.258Z,5.10
2018-03-22T21:46:52.797Z,5.10
2018-03-22T21:49:20.318Z,5.10
2018-03-22T21:51:59.749Z,5.10
2018-03-22T21:54:27.357Z,5.10
2018-03-22T21:56:54.847Z,5.10
2018-03-22T21:59:22.283Z,5.10
2018-03-22T22:01:49.737Z,5.10
2018-03-22T22:04:17.176Z,5.10
2018-03-22T22:06:44.638Z,5.10
2018-03-22T22:09:12.188Z,5.20
2018-03-22T22:11:39.624Z,5.20
2018-03-22T22:14:07.061Z,5.20
2018-03-22T22:16:34.476Z,5.30
2018-03-22T22:19:01.932Z,5.30
2018-03-22T22:21:29.368Z,5.20
2018-03-22T22:23:56.814Z,5.20
2018-03-22T22:26:24.284Z,5.30
2018-03-22T22:28:51.759Z,5.20
2018-03-22T22:31:19.272Z,5.20
2018-03-22T22:33:46.703Z,5.20
2018-03-22T22:36:14.140Z,5.20
2018-03-22T22:38:41.569Z,5.20
2018-03-22T22:41:09.023Z,5.20
2018-03-22T22:43:36.471Z,5.20
2018-03-22T22:46:04.004Z,5.30
2018-03-22T22:48:31.478Z,5.30
2018-03-22T22:50:58.916Z,5.30
2018-03-22T22:53:26.432Z,5.30
2018-03-22T22:55:53.897Z,5.30
2018-03-22T22:58:21.332Z,5.30
2018-03-22T23:00:48.773Z,5.20
2018-03-22T23:03:16.477Z,5.30
2018-03-22T23:05:43.988Z,5.20
2018-03-22T23:08:11.444Z,5.20
2018-03-22T23:10:38.906Z,5.10
2018-03-22T23:13:06.360Z,5.10
2018-03-22T23:15:33.992Z,5.10
2018-03-22T23:18:01.445Z,5.10
2018-03-22T23:20:29.028Z,5.10
2018-03-22T23:22:56.452Z,5.00
2018-03-22T23:25:23.887Z,5.10
2018-03-22T23:27:51.312Z,5.10
2018-03-22T23:30:18.736Z,5.10
2018-03-22T23:32:46.317Z,5.10
2018-03-22T23:35:13.852Z,5.10
2018-03-22T23:37:41.400Z,5.10
2018-03-22T23:40:08.891Z,5.10
2018-03-22T23:42:36.445Z,5.20
2018-03-22T23:45:04.077Z,5.10
2018-03-22T23:47:31.660Z,5.10
2018-03-22T23:49:59.091Z,5.10
2018-03-22T23:52:26.532Z,5.20
2018-03-22T23:54:53.951Z,5.20
2018-03-22T23:57:21.389Z,5.10
2018-03-22T23:59:48.808Z,5.10
